createdAt,value
2016-05-26T00:00:23.746Z,0
2016-05-26T00:01:23.873Z,0
2016-05-26T00:02:23.860Z,0
2016-05-26T00:03:23.894Z,0
2016-05-26T00:04:23.835Z,0
2016-05-26T00:05:23.837Z,0
2016-05-26T00:06:23.793Z,0
2016-05-26T00:07:23.623Z,0
2016-05-26T00:08:23.783Z,0
2016-05-26T00:09:23.739Z,0
2016-05-26T00:10:23.725Z,0
2016-05-26T00:11:23.713Z,0
2016-05-26T00:12:23.683Z,0
2016-05-26T00:13:23.686Z,0
2016-05-26T00:14:23.643Z,0
2016-05-26T00:15:23.489Z,0
2016-05-26T00:16:23.633Z,0
2016-05-26T00:17:23.463Z,0
2016-05-26T00:18:23.607Z,0
2016-05-26T00:19:23.578Z,0
2016-05-26T00:20:23.566Z,0
2016-05-26T00:21:23.396Z,0
2016-05-26T00:22:23.524Z,0
2016-05-26T00:23:23.371Z,0
2016-05-26T00:24:23.498Z,0
2016-05-26T00:25:23.672Z,0
2016-05-26T00:26:23.456Z,0
2016-05-26T00:27:23.271Z,0
2016-05-26T00:28:23.274Z,0
2016-05-26T00:29:23.261Z,0
2016-05-26T00:30:23.389Z,0
2016-05-26T00:31:23.392Z,0
2016-05-26T00:32:23.222Z,0
2016-05-26T00:33:23.459Z,0
2016-05-26T00:34:23.337Z,0
2016-05-26T00:35:23.309Z,0
2016-05-26T00:36:23.296Z,0
2016-05-26T00:37:23.284Z,0
2016-05-26T00:38:23.082Z,0
2016-05-26T00:39:23.242Z,0
2016-05-26T00:40:23.228Z,0
2016-05-26T00:41:23.200Z,0
2016-05-26T00:42:23.203Z,0
2016-05-26T00:43:23.017Z,0
2016-05-26T00:44:23.161Z,0
2016-05-26T00:45:23.147Z,0
2016-05-26T00:46:22.947Z,0
2016-05-26T00:47:23.106Z,0
2016-05-26T00:48:23.094Z,0
2016-05-26T00:49:23.096Z,0
2016-05-26T00:50:23.083Z,0
2016-05-26T00:51:23.039Z,0
2016-05-26T00:52:22.869Z,0
2016-05-26T00:53:22.997Z,0
2016-05-26T00:54:22.860Z,0
2016-05-26T00:55:22.815Z,0
2016-05-26T00:56:22.802Z,0
2016-05-26T00:57:22.774Z,0
2016-05-26T00:58:22.933Z,0
2016-05-26T00:59:22.748Z,0
2016-05-26T01:00:22.720Z,0
2016-05-26T01:01:22.863Z,0
2016-05-26T01:02:22.850Z,0
2016-05-26T01:03:22.853Z,0
2016-05-26T01:04:22.824Z,0
2016-05-26T01:05:22.655Z,0
2016-05-26T01:06:22.782Z,0
2016-05-26T01:07:22.770Z,0
2016-05-26T01:08:22.772Z,0
2016-05-26T01:09:22.744Z,0
2016-05-26T01:10:22.731Z,0
2016-05-26T01:11:22.702Z,0
2016-05-26T01:12:22.534Z,0
2016-05-26T01:13:22.661Z,0
2016-05-26T01:14:22.647Z,0
2016-05-26T01:15:22.463Z,0
2016-05-26T01:16:22.622Z,0
2016-05-26T01:17:22.609Z,0
2016-05-26T01:18:22.689Z,0
2016-05-26T01:19:22.583Z,0
2016-05-26T01:20:22.383Z,0
2016-05-26T01:21:22.527Z,0
2016-05-26T01:22:22.513Z,0
2016-05-26T01:23:22.499Z,0
2016-05-26T01:24:22.503Z,0
2016-05-26T01:25:22.458Z,0
2016-05-26T01:26:22.461Z,0
2016-05-26T01:27:22.463Z,0
2016-05-26T01:28:22.420Z,0
2016-05-26T01:29:22.391Z,0
2016-05-26T01:30:22.378Z,0
2016-05-26T01:31:22.382Z,0
2016-05-26T01:32:22.181Z,0
2016-05-26T01:33:22.637Z,0
2016-05-26T01:34:22.311Z,0
2016-05-26T01:35:22.298Z,0
2016-05-26T01:36:22.285Z,0
2016-05-26T01:37:22.257Z,0
2016-05-26T01:38:22.244Z,0
2016-05-26T01:39:22.075Z,0
2016-05-26T01:40:22.062Z,0
2016-05-26T01:41:22.189Z,0
2016-05-26T01:42:22.176Z,0
2016-05-26T01:43:22.164Z,0
2016-05-26T01:44:22.134Z,0
2016-05-26T01:45:22.122Z,0
2016-05-26T01:46:22.108Z,0
2016-05-26T01:47:21.986Z,0
2016-05-26T01:48:21.833Z,0
2016-05-26T01:49:21.897Z,0
2016-05-26T01:50:22.041Z,0
2016-05-26T01:51:22.028Z,0
2016-05-26T01:52:21.860Z,0
2016-05-26T01:53:21.847Z,0
2016-05-26T01:54:21.974Z,0
2016-05-26T01:55:21.977Z,0
2016-05-26T01:56:21.933Z,0
2016-05-26T01:57:21.764Z,0
2016-05-26T01:58:21.751Z,0
2016-05-26T01:59:21.879Z,0
2016-05-26T02:00:21.709Z,0
2016-05-26T02:01:21.852Z,0
2016-05-26T02:02:21.840Z,0
2016-05-26T02:03:22.248Z,0
2016-05-26T02:04:21.798Z,0
2016-05-26T02:05:21.784Z,0
2016-05-26T02:06:21.773Z,0
2016-05-26T02:07:21.759Z,0
2016-05-26T02:08:21.574Z,0
2016-05-26T02:09:21.717Z,0
2016-05-26T02:10:21.767Z,0
2016-05-26T02:11:21.676Z,0
2016-05-26T02:12:21.663Z,0
2016-05-26T02:13:21.651Z,0
2016-05-26T02:14:21.622Z,0
2016-05-26T02:15:21.624Z,0
2016-05-26T02:16:21.595Z,0
2016-05-26T02:17:21.442Z,0
2016-05-26T02:18:22.086Z,0
2016-05-26T02:19:21.542Z,0
2016-05-26T02:20:21.528Z,0
2016-05-26T02:21:21.516Z,0
2016-05-26T02:22:21.519Z,0
2016-05-26T02:23:21.489Z,0
2016-05-26T02:24:21.477Z,0
2016-05-26T02:25:21.432Z,0
2016-05-26T02:26:21.435Z,0
2016-05-26T02:27:21.407Z,0
2016-05-26T02:28:21.237Z,0
2016-05-26T02:29:21.365Z,0
2016-05-26T02:30:21.368Z,0
2016-05-26T02:31:21.339Z,0
2016-05-26T02:32:21.185Z,0
2016-05-26T02:33:21.423Z,0
2016-05-26T02:34:21.316Z,0
2016-05-26T02:35:21.116Z,0
2016-05-26T02:36:21.259Z,0
2016-05-26T02:37:21.246Z,0
2016-05-26T02:38:21.218Z,0
2016-05-26T02:39:21.220Z,0
2016-05-26T02:40:21.192Z,0
2016-05-26T02:41:21.163Z,0
2016-05-26T02:42:21.165Z,0
2016-05-26T02:43:21.153Z,0
2016-05-26T02:44:21.109Z,0
2016-05-26T02:45:21.095Z,0
2016-05-26T02:46:20.926Z,0
2016-05-26T02:47:21.194Z,0
2016-05-26T02:48:21.072Z,0
2016-05-26T02:49:20.888Z,0
2016-05-26T02:50:21.015Z,0
2016-05-26T02:51:21.064Z,0
2016-05-26T02:52:20.817Z,0
2016-05-26T02:53:20.836Z,0
2016-05-26T02:54:20.558Z,0
2016-05-26T02:55:20.998Z,0
2016-05-26T02:56:20.937Z,0
2016-05-26T02:57:20.894Z,0
2016-05-26T02:58:20.881Z,0
2016-05-26T02:59:20.696Z,0
2016-05-26T03:00:20.699Z,0
2016-05-26T03:01:20.826Z,0
2016-05-26T03:02:21.016Z,0
2016-05-26T03:03:21.082Z,0
2016-05-26T03:04:20.631Z,0
2016-05-26T03:05:20.759Z,0
2016-05-26T03:06:20.746Z,0
2016-05-26T03:07:20.576Z,0
2016-05-26T03:08:20.736Z,0
2016-05-26T03:09:20.707Z,0
2016-05-26T03:10:20.694Z,0
2016-05-26T03:11:20.509Z,0
2016-05-26T03:12:20.653Z,0
2016-05-26T03:13:20.624Z,0
2016-05-26T03:14:20.612Z,0
2016-05-26T03:15:20.598Z,0
2016-05-26T03:16:20.570Z,0
2016-05-26T03:17:20.448Z,0
2016-05-26T03:18:20.887Z,0
2016-05-26T03:19:20.375Z,0
2016-05-26T03:20:20.549Z,0
2016-05-26T03:21:20.505Z,0
2016-05-26T03:22:20.477Z,0
2016-05-26T03:23:20.463Z,0
2016-05-26T03:24:20.278Z,0
2016-05-26T03:25:20.422Z,0
2016-05-26T03:26:20.393Z,0
2016-05-26T03:27:20.380Z,0
2016-05-26T03:28:20.383Z,0
2016-05-26T03:29:20.355Z,0
2016-05-26T03:30:20.341Z,0
2016-05-26T03:31:20.344Z,0
2016-05-26T03:32:20.300Z,0
2016-05-26T03:33:20.241Z,0
2016-05-26T03:34:20.259Z,0
2016-05-26T03:35:19.932Z,0
2016-05-26T03:36:20.233Z,0
2016-05-26T03:37:20.220Z,0
2016-05-26T03:38:20.207Z,0
2016-05-26T03:39:20.037Z,0
2016-05-26T03:40:20.181Z,0
2016-05-26T03:41:19.996Z,0
2016-05-26T03:42:20.139Z,0
2016-05-26T03:43:20.095Z,0
2016-05-26T03:44:19.942Z,0
2016-05-26T03:45:20.084Z,0
2016-05-26T03:46:20.056Z,0
2016-05-26T03:47:19.903Z,0
2016-05-26T03:48:19.906Z,0
2016-05-26T03:49:20.018Z,0
2016-05-26T03:50:19.880Z,0
2016-05-26T03:51:19.680Z,0
2016-05-26T03:52:19.963Z,0
2016-05-26T03:53:19.950Z,0
2016-05-26T03:54:19.938Z,0
2016-05-26T03:55:19.909Z,0
2016-05-26T03:56:19.896Z,0
2016-05-26T03:57:19.883Z,0
2016-05-26T03:58:19.698Z,0
2016-05-26T03:59:19.826Z,0
2016-05-26T04:00:19.657Z,0
2016-05-26T04:01:19.816Z,0
2016-05-26T04:02:19.630Z,0
2016-05-26T04:03:19.962Z,0
2016-05-26T04:04:19.605Z,0
2016-05-26T04:05:19.749Z,0
2016-05-26T04:06:19.579Z,0
2016-05-26T04:07:19.551Z,0
2016-05-26T04:08:19.679Z,0
2016-05-26T04:09:19.681Z,0
2016-05-26T04:10:19.652Z,0
2016-05-26T04:11:19.639Z,0
2016-05-26T04:12:19.611Z,0
2016-05-26T04:13:19.614Z,0
2016-05-26T04:14:19.429Z,0
2016-05-26T04:15:19.415Z,0
2016-05-26T04:16:19.559Z,0
2016-05-26T04:17:19.795Z,0
2016-05-26T04:18:19.378Z,0
2016-05-26T04:19:19.349Z,0
2016-05-26T04:20:19.475Z,0
2016-05-26T04:21:19.463Z,0
2016-05-26T04:22:19.466Z,0
2016-05-26T04:23:19.297Z,0
2016-05-26T04:24:19.409Z,0
2016-05-26T04:25:19.380Z,0
2016-05-26T04:26:19.227Z,0
2016-05-26T04:27:19.370Z,0
2016-05-26T04:28:19.357Z,0
2016-05-26T04:29:19.328Z,0
2016-05-26T04:30:19.331Z,0
2016-05-26T04:31:19.287Z,0
2016-05-26T04:32:19.274Z,0
2016-05-26T04:33:19.777Z,0
2016-05-26T04:34:19.076Z,0
2016-05-26T04:35:19.235Z,0
2016-05-26T04:36:19.206Z,0
2016-05-26T04:37:19.179Z,0
2016-05-26T04:38:19.010Z,0
2016-05-26T04:39:19.152Z,0
2016-05-26T04:40:18.968Z,0
2016-05-26T04:41:19.126Z,0
2016-05-26T04:42:19.113Z,0
2016-05-26T04:43:18.945Z,0
2016-05-26T04:44:19.056Z,0
2016-05-26T04:45:19.043Z,0
2016-05-26T04:46:19.031Z,0
2016-05-26T04:47:19.017Z,0
2016-05-26T04:48:19.723Z,0
2016-05-26T04:49:18.836Z,0
2016-05-26T04:50:18.963Z,0
2016-05-26T04:51:18.950Z,0
2016-05-26T04:52:18.922Z,0
2016-05-26T04:53:18.940Z,0
2016-05-26T04:54:18.740Z,4
2016-05-26T04:55:18.726Z,4
2016-05-26T04:56:18.870Z,0
2016-05-26T04:57:18.858Z,4
2016-05-26T04:58:18.828Z,8
2016-05-26T04:59:18.816Z,4
2016-05-26T05:00:18.630Z,8
2016-05-26T05:01:18.758Z,8
2016-05-26T05:02:18.605Z,8
2016-05-26T05:03:18.998Z,16
2016-05-26T05:04:18.735Z,16
2016-05-26T05:05:18.565Z,20
2016-05-26T05:06:18.693Z,20
2016-05-26T05:07:18.697Z,24
2016-05-26T05:08:18.668Z,32
2016-05-26T05:09:18.639Z,36
2016-05-26T05:10:18.642Z,40
2016-05-26T05:11:18.598Z,44
2016-05-26T05:12:18.429Z,52
2016-05-26T05:13:18.260Z,60
2016-05-26T05:14:18.559Z,68
2016-05-26T05:15:18.531Z,76
2016-05-26T05:16:18.534Z,84
2016-05-26T05:17:18.504Z,96
2016-05-26T05:18:19.116Z,112
2016-05-26T05:19:18.462Z,124
2016-05-26T05:20:18.294Z,140
2016-05-26T05:21:18.265Z,152
2016-05-26T05:22:18.424Z,168
2016-05-26T05:23:18.412Z,180
2016-05-26T05:24:18.398Z,196
2016-05-26T05:25:18.353Z,212
2016-05-26T05:26:18.200Z,228
2016-05-26T05:27:18.188Z,260
2016-05-26T05:28:18.331Z,284
2016-05-26T05:29:18.147Z,304
2016-05-26T05:30:18.274Z,328
2016-05-26T05:31:18.277Z,372
2016-05-26T05:32:18.264Z,456
2016-05-26T05:33:18.672Z,524
2016-05-26T05:34:18.222Z,552
2016-05-26T05:35:17.881Z,584
2016-05-26T05:36:18.227Z,580
2016-05-26T05:37:18.168Z,624
2016-05-26T05:38:18.138Z,700
2016-05-26T05:39:18.126Z,744
2016-05-26T05:40:18.098Z,728
2016-05-26T05:41:17.929Z,696
2016-05-26T05:42:18.087Z,748
2016-05-26T05:43:18.059Z,784
2016-05-26T05:44:17.889Z,780
2016-05-26T05:45:18.017Z,824
2016-05-26T05:46:17.864Z,932
2016-05-26T05:47:17.992Z,1012
2016-05-26T05:48:17.510Z,972
2016-05-26T05:49:17.965Z,988
2016-05-26T05:50:17.781Z,984
2016-05-26T05:51:17.909Z,1020
2016-05-26T05:52:17.911Z,984
2016-05-26T05:53:17.897Z,952
2016-05-26T05:54:17.885Z,912
2016-05-26T05:55:17.544Z,896
2016-05-26T05:56:17.844Z,932
2016-05-26T05:57:17.518Z,952
2016-05-26T05:58:17.817Z,908
2016-05-26T05:59:17.633Z,872
2016-05-26T06:00:17.760Z,864
2016-05-26T06:01:17.764Z,896
2016-05-26T06:02:17.735Z,932
2016-05-26T06:03:18.347Z,940
2016-05-26T06:04:17.694Z,984
2016-05-26T06:05:17.508Z,1088
2016-05-26T06:06:17.683Z,1216
2016-05-26T06:07:17.670Z,1304
2016-05-26T06:08:17.641Z,1400
2016-05-26T06:09:17.597Z,1408
2016-05-26T06:10:17.460Z,1344
2016-05-26T06:11:17.587Z,1264
2016-05-26T06:12:17.559Z,1304
2016-05-26T06:13:17.562Z,1528
2016-05-26T06:14:17.517Z,1744
2016-05-26T06:15:17.520Z,1804
2016-05-26T06:16:17.537Z,1616
2016-05-26T06:17:17.493Z,1520
2016-05-26T06:18:17.435Z,1448
2016-05-26T06:19:17.437Z,1396
2016-05-26T06:20:17.440Z,1480
2016-05-26T06:21:17.426Z,1684
2016-05-26T06:22:17.257Z,2032
2016-05-26T06:23:17.385Z,2232
2016-05-26T06:24:17.356Z,2240
2016-05-26T06:25:17.344Z,2308
2016-05-26T06:26:17.175Z,2604
2016-05-26T06:27:17.177Z,2932
2016-05-26T06:28:17.289Z,3164
2016-05-26T06:29:17.276Z,3312
2016-05-26T06:30:16.950Z,3488
2016-05-26T06:31:17.235Z,3388
2016-05-26T06:32:17.222Z,3176
2016-05-26T06:33:17.646Z,3076
2016-05-26T06:34:17.180Z,3052
2016-05-26T06:35:17.026Z,3368
2016-05-26T06:36:17.154Z,3796
2016-05-26T06:37:17.142Z,3696
2016-05-26T06:38:17.129Z,3520
2016-05-26T06:39:16.960Z,3336
2016-05-26T06:40:17.102Z,3832
2016-05-26T06:41:16.918Z,3992
2016-05-26T06:42:16.921Z,3176
2016-05-26T06:43:16.893Z,2736
2016-05-26T06:44:17.035Z,2384
2016-05-26T06:45:16.866Z,2216
2016-05-26T06:46:16.838Z,2220
2016-05-26T06:47:16.996Z,2096
2016-05-26T06:48:16.952Z,1864
2016-05-26T06:49:16.954Z,1688
2016-05-26T06:50:17.145Z,1772
2016-05-26T06:51:16.914Z,1768
2016-05-26T06:52:16.917Z,1776
2016-05-26T06:53:16.715Z,1804
2016-05-26T06:54:16.874Z,1888
2016-05-26T06:55:16.846Z,1884
2016-05-26T06:56:16.677Z,1912
2016-05-26T06:57:16.820Z,1868
2016-05-26T06:58:16.792Z,1876
2016-05-26T06:59:16.622Z,1860
2016-05-26T07:00:16.766Z,1848
2016-05-26T07:01:16.597Z,1732
2016-05-26T07:02:16.569Z,1696
2016-05-26T07:03:16.711Z,1840
2016-05-26T07:04:16.230Z,1968
2016-05-26T07:05:16.670Z,1992
2016-05-26T07:06:16.500Z,2072
2016-05-26T07:07:16.488Z,2224
2016-05-26T07:08:16.474Z,2444
2016-05-26T07:09:16.618Z,2720
2016-05-26T07:10:16.590Z,3004
2016-05-26T07:11:16.576Z,2924
2016-05-26T07:12:16.563Z,2444
2016-05-26T07:13:16.535Z,2348
2016-05-26T07:14:16.522Z,2308
2016-05-26T07:15:16.353Z,2248
2016-05-26T07:16:16.340Z,2216
2016-05-26T07:17:16.483Z,1988
2016-05-26T07:18:17.112Z,2124
2016-05-26T07:19:16.427Z,2024
2016-05-26T07:20:16.257Z,2392
2016-05-26T07:21:16.245Z,2424
2016-05-26T07:22:16.387Z,2360
2016-05-26T07:23:16.375Z,2304
2016-05-26T07:24:16.362Z,2292
2016-05-26T07:25:16.348Z,2344
2016-05-26T07:26:16.320Z,2384
2016-05-26T07:27:16.307Z,2264
2016-05-26T07:28:16.294Z,2380
2016-05-26T07:29:16.109Z,2428
2016-05-26T07:30:16.252Z,2472
2016-05-26T07:31:16.224Z,2536
2016-05-26T07:32:16.227Z,2552
2016-05-26T07:33:16.573Z,2556
2016-05-26T07:34:16.200Z,2536
2016-05-26T07:35:16.188Z,2556
2016-05-26T07:36:16.174Z,2608
2016-05-26T07:37:16.145Z,2592
2016-05-26T07:38:16.158Z,2572
2016-05-26T07:39:16.169Z,2576
2016-05-26T07:40:16.041Z,2592
2016-05-26T07:41:15.896Z,2616
2016-05-26T07:42:16.040Z,2624
2016-05-26T07:43:16.193Z,2636
2016-05-26T07:44:16.172Z,2644
2016-05-26T07:45:16.011Z,2640
2016-05-26T07:46:15.992Z,2656
2016-05-26T07:47:16.157Z,2656
2016-05-26T07:48:16.006Z,2712
2016-05-26T07:49:16.107Z,2796
2016-05-26T07:50:16.129Z,2980
2016-05-26T07:51:16.088Z,3104
2016-05-26T07:52:16.077Z,3012
2016-05-26T07:53:15.909Z,3156
2016-05-26T07:54:16.037Z,3460
2016-05-26T07:55:16.027Z,3812
2016-05-26T07:56:15.859Z,4236
2016-05-26T07:57:15.987Z,4528
2016-05-26T07:58:16.004Z,4628
2016-05-26T07:59:15.961Z,4824
2016-05-26T08:00:15.949Z,5508
2016-05-26T08:01:15.920Z,6548
2016-05-26T08:02:15.924Z,7640
2016-05-26T08:03:16.269Z,8996
2016-05-26T08:04:15.741Z,9180
2016-05-26T08:05:15.869Z,8972
2016-05-26T08:06:15.856Z,7420
2016-05-26T08:07:15.827Z,5884
2016-05-26T08:08:15.829Z,5196
2016-05-26T08:09:15.802Z,4828
2016-05-26T08:10:15.633Z,3752
2016-05-26T08:11:15.776Z,3560
2016-05-26T08:12:15.747Z,3808
2016-05-26T08:13:15.749Z,4432
2016-05-26T08:14:15.721Z,3764
2016-05-26T08:15:15.630Z,3580
2016-05-26T08:16:15.712Z,3556
2016-05-26T08:17:15.698Z,3812
2016-05-26T08:18:16.575Z,3608
2016-05-26T08:19:15.641Z,3460
2016-05-26T08:20:15.518Z,3428
2016-05-26T08:21:15.615Z,3476
2016-05-26T08:22:15.461Z,3476
2016-05-26T08:23:15.589Z,3448
2016-05-26T08:24:15.436Z,3452
2016-05-26T08:25:15.563Z,2892
2016-05-26T08:26:15.534Z,3412
2016-05-26T08:27:15.381Z,3428
2016-05-26T08:28:15.508Z,3376
2016-05-26T08:29:15.496Z,3380
2016-05-26T08:30:15.483Z,2764
2016-05-26T08:31:15.454Z,2596
2016-05-26T08:32:17.566Z,2736
2016-05-26T08:33:15.273Z,2664
2016-05-26T08:34:15.415Z,2796
2016-05-26T08:35:15.387Z,4012
2016-05-26T08:36:15.374Z,4204
2016-05-26T08:37:16.736Z,4460
2016-05-26T08:38:15.192Z,4992
2016-05-26T08:39:15.336Z,5248
2016-05-26T08:40:15.321Z,5516
2016-05-26T08:41:15.325Z,5744
2016-05-26T08:42:15.391Z,5468
2016-05-26T08:43:15.315Z,5188
2016-05-26T08:44:15.255Z,4380
2016-05-26T08:45:15.101Z,5072
2016-05-26T08:46:15.229Z,6048
2016-05-26T08:47:15.201Z,5596
2016-05-26T08:48:15.563Z,4532
2016-05-26T08:49:15.190Z,4288
2016-05-26T08:50:15.162Z,4192
2016-05-26T08:51:15.149Z,4472
2016-05-26T08:52:15.136Z,3640
2016-05-26T08:53:15.123Z,4380
2016-05-26T08:54:15.078Z,4272
2016-05-26T08:55:14.925Z,4184
2016-05-26T08:56:15.069Z,4428
2016-05-26T08:57:16.853Z,5144
2016-05-26T08:58:15.027Z,4808
2016-05-26T08:59:15.014Z,4132
2016-05-26T09:00:15.001Z,4024
2016-05-26T09:01:14.972Z,4008
2016-05-26T09:02:16.881Z,4036
2016-05-26T09:03:14.838Z,4020
2016-05-26T09:04:15.324Z,4032
2016-05-26T09:05:14.952Z,4052
2016-05-26T09:06:14.908Z,4160
2016-05-26T09:07:14.894Z,4200
2016-05-26T09:08:14.897Z,4252
2016-05-26T09:09:14.729Z,4288
2016-05-26T09:10:14.840Z,4216
2016-05-26T09:11:14.827Z,4140
2016-05-26T09:12:14.674Z,4124
2016-05-26T09:13:14.645Z,4164
2016-05-26T09:14:14.788Z,4228
2016-05-26T09:15:14.776Z,4296
2016-05-26T09:16:14.607Z,4348
2016-05-26T09:17:14.718Z,4324
2016-05-26T09:18:14.737Z,4280
2016-05-26T09:19:15.427Z,4252
2016-05-26T09:20:14.711Z,4248
2016-05-26T09:21:14.354Z,4276
2016-05-26T09:22:14.685Z,4292
2016-05-26T09:23:14.642Z,4304
2016-05-26T09:24:14.629Z,4376
2016-05-26T09:25:14.458Z,4384
2016-05-26T09:26:14.603Z,4368
2016-05-26T09:27:14.777Z,4404
2016-05-26T09:28:14.576Z,4420
2016-05-26T09:29:14.392Z,4416
2016-05-26T09:30:14.379Z,4396
2016-05-26T09:31:14.506Z,4380
2016-05-26T09:32:14.494Z,4464
2016-05-26T09:33:14.559Z,4484
2016-05-26T09:34:14.483Z,4492
2016-05-26T09:35:14.455Z,4516
2016-05-26T09:36:14.426Z,4536
2016-05-26T09:37:14.272Z,4532
2016-05-26T09:38:14.416Z,4576
2016-05-26T09:39:14.419Z,4628
2016-05-26T09:40:14.046Z,4656
2016-05-26T09:41:14.377Z,4676
2016-05-26T09:42:14.349Z,4696
2016-05-26T09:43:14.195Z,4780
2016-05-26T09:44:14.479Z,4856
2016-05-26T09:45:14.294Z,4940
2016-05-26T09:46:14.297Z,5012
2016-05-26T09:47:14.112Z,5096
2016-05-26T09:48:14.849Z,5188
2016-05-26T09:49:14.727Z,5220
2016-05-26T09:50:14.229Z,5228
2016-05-26T09:51:14.201Z,5192
2016-05-26T09:52:14.172Z,5132
2016-05-26T09:53:14.176Z,5072
2016-05-26T09:54:14.162Z,5168
2016-05-26T09:55:14.134Z,5224
2016-05-26T09:56:13.964Z,5232
2016-05-26T09:57:14.029Z,5252
2016-05-26T09:58:14.111Z,5356
2016-05-26T09:59:14.082Z,5296
2016-05-26T10:00:14.069Z,5320
2016-05-26T10:01:14.056Z,5372
2016-05-26T10:02:14.027Z,5432
2016-05-26T10:03:14.124Z,5512
2016-05-26T10:04:14.064Z,5584
2016-05-26T10:05:13.989Z,5600
2016-05-26T10:06:13.991Z,5644
2016-05-26T10:07:13.963Z,5728
2016-05-26T10:08:13.619Z,5788
2016-05-26T10:09:13.936Z,5836
2016-05-26T10:10:13.939Z,5904
2016-05-26T10:11:13.893Z,5988
2016-05-26T10:12:13.864Z,6080
2016-05-26T10:13:13.867Z,6108
2016-05-26T10:14:13.697Z,6148
2016-05-26T10:15:13.888Z,6240
2016-05-26T10:16:13.828Z,6312
2016-05-26T10:17:13.799Z,6416
2016-05-26T10:18:14.711Z,6508
2016-05-26T10:19:13.774Z,6616
2016-05-26T10:20:13.588Z,6676
2016-05-26T10:21:13.576Z,6748
2016-05-26T10:22:13.734Z,6860
2016-05-26T10:23:13.706Z,6980
2016-05-26T10:24:13.381Z,7084
2016-05-26T10:25:13.665Z,7240
2016-05-26T10:26:13.667Z,7432
2016-05-26T10:27:13.654Z,8008
2016-05-26T10:28:13.939Z,6568
2016-05-26T10:29:13.629Z,7820
2016-05-26T10:30:13.615Z,7860
2016-05-26T10:31:13.587Z,7860
2016-05-26T10:32:13.574Z,7896
2016-05-26T10:33:13.670Z,7980
2016-05-26T10:34:13.408Z,8036
2016-05-26T10:35:13.363Z,8056
2016-05-26T10:36:13.522Z,8112
2016-05-26T10:37:13.337Z,8432
2016-05-26T10:38:13.497Z,8332
2016-05-26T10:39:13.468Z,8372
2016-05-26T10:40:13.455Z,8388
2016-05-26T10:41:13.442Z,8376
2016-05-26T10:42:13.413Z,8292
2016-05-26T10:43:13.416Z,8296
2016-05-26T10:44:13.231Z,8396
2016-05-26T10:45:13.390Z,8476
2016-05-26T10:46:13.363Z,8516
2016-05-26T10:47:13.365Z,8576
2016-05-26T10:48:13.430Z,8816
2016-05-26T10:49:13.198Z,9372
2016-05-26T10:50:13.294Z,10712
2016-05-26T10:51:13.328Z,11584
2016-05-26T10:52:13.300Z,12032
2016-05-26T10:53:13.271Z,7516
2016-05-26T10:54:13.259Z,8792
2016-05-26T10:55:13.229Z,8716
2016-05-26T10:56:13.217Z,9288
2016-05-26T10:57:13.203Z,9196
2016-05-26T10:58:13.050Z,7320
2016-05-26T10:59:13.193Z,6784
2016-05-26T11:00:13.150Z,8868
2016-05-26T11:01:13.152Z,9344
2016-05-26T11:02:13.155Z,9840
2016-05-26T11:03:12.829Z,10592
2016-05-26T11:04:13.800Z,10216
2016-05-26T11:05:12.944Z,8684
2016-05-26T11:06:12.947Z,8584
2016-05-26T11:07:13.090Z,8700
2016-05-26T11:08:13.061Z,8868
2016-05-26T11:09:13.049Z,8604
2016-05-26T11:10:13.239Z,8516
2016-05-26T11:11:12.913Z,8504
2016-05-26T11:12:12.869Z,8504
2016-05-26T11:13:13.013Z,8480
2016-05-26T11:14:12.983Z,8456
2016-05-26T11:15:12.986Z,8572
2016-05-26T11:16:12.801Z,8628
2016-05-26T11:17:12.913Z,8828
2016-05-26T11:18:13.807Z,8808
2016-05-26T11:19:13.372Z,8692
2016-05-26T11:20:12.922Z,8772
2016-05-26T11:21:12.752Z,8908
2016-05-26T11:22:12.896Z,11304
2016-05-26T11:23:12.758Z,34784
2016-05-26T11:24:12.682Z,79168
2016-05-26T11:25:12.826Z,104064
2016-05-26T11:26:12.813Z,104768
2016-05-26T11:27:12.800Z,106208
2016-05-26T11:28:12.803Z,107104
2016-05-26T11:29:12.617Z,105344
2016-05-26T11:30:12.777Z,108192
2016-05-26T11:31:12.795Z,109248
2016-05-26T11:32:12.767Z,105600
2016-05-26T11:33:13.284Z,101696
2016-05-26T11:34:12.616Z,103264
2016-05-26T11:35:12.634Z,108192
2016-05-26T11:36:12.653Z,106688
2016-05-26T11:37:12.577Z,106400
2016-05-26T11:38:12.736Z,106112
2016-05-26T11:39:12.926Z,108032
2016-05-26T11:40:12.850Z,107264
2016-05-26T11:41:12.838Z,107424
2016-05-26T11:42:12.716Z,106304
2016-05-26T11:43:12.687Z,103936
2016-05-26T11:44:12.658Z,96224
2016-05-26T11:45:12.364Z,101408
2016-05-26T11:46:12.663Z,110208
2016-05-26T11:47:12.666Z,109152
2016-05-26T11:48:12.685Z,104800
2016-05-26T11:49:12.688Z,103200
2016-05-26T11:50:12.502Z,105408
2016-05-26T11:51:12.630Z,100672
2016-05-26T11:52:12.649Z,90304
2016-05-26T11:53:12.636Z,77344
2016-05-26T11:54:12.623Z,45568
2016-05-26T11:55:12.641Z,24352
2016-05-26T11:56:12.612Z,18784
2016-05-26T11:57:12.616Z,17600
2016-05-26T11:58:12.618Z,16960
2016-05-26T11:59:12.604Z,16624
2016-05-26T12:00:12.608Z,16348
2016-05-26T12:01:12.610Z,16172
2016-05-26T12:02:12.612Z,16008
2016-05-26T12:03:12.490Z,16004
2016-05-26T12:04:12.978Z,15972
2016-05-26T12:05:12.590Z,15812
2016-05-26T12:06:12.420Z,15540
2016-05-26T12:07:12.439Z,15324
2016-05-26T12:08:12.254Z,15312
2016-05-26T12:09:12.585Z,15364
2016-05-26T12:10:12.557Z,15328
2016-05-26T12:11:12.403Z,15164
2016-05-26T12:12:12.561Z,15160
2016-05-26T12:13:12.564Z,15208
2016-05-26T12:14:12.552Z,15212
2016-05-26T12:15:12.398Z,15212
2016-05-26T12:16:12.588Z,15248
2016-05-26T12:17:12.403Z,15276
2016-05-26T12:18:12.577Z,15564
2016-05-26T12:19:12.393Z,15836
2016-05-26T12:20:12.552Z,15968
2016-05-26T12:21:12.539Z,15984
2016-05-26T12:22:12.370Z,15900
2016-05-26T12:23:12.607Z,15828
2016-05-26T12:24:12.531Z,15860
2016-05-26T12:25:12.519Z,15852
2016-05-26T12:26:12.521Z,16080
2016-05-26T12:27:12.523Z,16388
2016-05-26T12:28:12.527Z,16580
2016-05-26T12:29:12.389Z,16700
2016-05-26T12:30:12.517Z,16896
2016-05-26T12:31:12.520Z,17312
2016-05-26T12:32:12.506Z,17504
2016-05-26T12:33:13.087Z,17664
2016-05-26T12:34:12.356Z,17888
2016-05-26T12:35:12.499Z,18272
2016-05-26T12:36:12.501Z,18720
2016-05-26T12:37:12.347Z,19200
2016-05-26T12:38:12.492Z,20096
2016-05-26T12:39:12.338Z,23200
2016-05-26T12:40:12.481Z,35168
2016-05-26T12:41:12.484Z,54880
2016-05-26T12:42:12.502Z,77280
2016-05-26T12:43:12.489Z,99936
2016-05-26T12:44:12.491Z,107328
2016-05-26T12:45:12.479Z,101792
2016-05-26T12:46:12.466Z,98240
2016-05-26T12:47:12.469Z,98784
2016-05-26T12:48:12.471Z,94752
2016-05-26T12:49:12.161Z,78304
2016-05-26T12:50:12.477Z,78240
2016-05-26T12:51:12.323Z,94592
2016-05-26T12:52:12.482Z,97792
2016-05-26T12:53:12.297Z,100768
2016-05-26T12:54:12.457Z,104352
2016-05-26T12:55:12.459Z,108064
2016-05-26T12:56:12.290Z,107872
2016-05-26T12:57:12.449Z,105536
2016-05-26T12:58:12.468Z,105600
2016-05-26T12:59:12.470Z,105760
2016-05-26T13:00:12.473Z,105504
2016-05-26T13:01:12.460Z,108320
2016-05-26T13:02:12.431Z,108608
2016-05-26T13:03:12.293Z,104096
2016-05-26T13:04:12.749Z,100608
2016-05-26T13:05:12.454Z,99712
2016-05-26T13:06:12.332Z,103264
2016-05-26T13:07:12.413Z,103872
2016-05-26T13:08:12.431Z,103648
2016-05-26T13:09:12.434Z,104672
2016-05-26T13:10:12.437Z,105792
2016-05-26T13:11:12.284Z,108512
2016-05-26T13:12:12.489Z,111296
2016-05-26T13:13:12.414Z,109280
2016-05-26T13:14:12.417Z,108256
2016-05-26T13:15:12.434Z,107296
2016-05-26T13:16:12.281Z,109408
2016-05-26T13:17:12.408Z,114496
2016-05-26T13:18:12.646Z,112544
2016-05-26T13:19:12.477Z,111872
2016-05-26T13:20:12.416Z,111872
2016-05-26T13:21:12.279Z,110848
2016-05-26T13:22:12.391Z,109664
2016-05-26T13:23:12.393Z,111136
2016-05-26T13:24:12.412Z,113568
2016-05-26T13:25:12.258Z,114560
2016-05-26T13:26:12.480Z,111808
2016-05-26T13:27:12.388Z,110656
2016-05-26T13:28:12.391Z,110176
2016-05-26T13:29:12.410Z,110688
2016-05-26T13:30:12.085Z,111040
2016-05-26T13:31:12.227Z,108736
2016-05-26T13:32:12.387Z,110560
2016-05-26T13:33:12.405Z,106752
2016-05-26T13:34:12.689Z,103904
2016-05-26T13:35:12.223Z,103968
2016-05-26T13:36:12.397Z,107872
2016-05-26T13:37:12.369Z,107872
2016-05-26T13:38:12.371Z,106976
2016-05-26T13:39:12.373Z,106144
2016-05-26T13:40:12.221Z,104608
2016-05-26T13:41:12.348Z,105536
2016-05-26T13:42:12.367Z,98848
2016-05-26T13:43:12.400Z,92736